createdAt,value
2022-08-17T00:01:52.136Z,15.90
2022-08-17T00:04:20.744Z,15.90
2022-08-17T00:06:49.478Z,16.00
2022-08-17T00:09:18.966Z,16.10
2022-08-17T00:12:35.096Z,16.10
2022-08-17T00:14:35.376Z,16.20
2022-08-17T00:17:04.141Z,16.10
2022-08-17T00:19:33.124Z,15.90
2022-08-17T00:22:32.748Z,15.80
2022-08-17T00:24:50.915Z,15.60
2022-08-17T00:27:18.966Z,15.60
2022-08-17T00:29:46.210Z,15.60
2022-08-17T00:33:15.854Z,15.60
2022-08-17T00:35:06.322Z,15.40
2022-08-17T00:37:33.922Z,15.60
2022-08-17T00:40:01.350Z,15.50
2022-08-17T00:42:31.103Z,15.60
2022-08-17T00:44:59.556Z,15.50
2022-08-17T00:47:26.821Z,15.60
2022-08-17T00:49:54.496Z,15.40
2022-08-17T00:52:23.401Z,15.30
2022-08-17T00:54:52.705Z,15.50
2022-08-17T00:57:31.379Z,15.50
2022-08-17T01:00:02.575Z,15.40
2022-08-17T01:02:40.400Z,15.20
2022-08-17T01:05:20.788Z,15.20
2022-08-17T01:07:48.671Z,15.30
2022-08-17T01:10:59.824Z,15.20
2022-08-17T01:13:03.797Z,15.20
2022-08-17T01:15:31.775Z,15.10
2022-08-17T01:17:59.253Z,15.20
2022-08-17T01:20:27.110Z,15.30
2022-08-17T01:22:54.647Z,15.50
2022-08-17T01:25:22.009Z,15.50
2022-08-17T01:27:49.268Z,15.40
2022-08-17T01:30:58.042Z,15.10
2022-08-17T01:33:04.626Z,15.00
2022-08-17T01:35:32.168Z,14.90
2022-08-17T01:37:59.293Z,14.80
2022-08-17T01:40:36.035Z,15.10
2022-08-17T01:43:11.690Z,15.10
2022-08-17T01:45:44.698Z,15.20
2022-08-17T01:48:12.486Z,15.00
2022-08-17T01:50:41.203Z,14.90
2022-08-17T01:53:11.732Z,15.10
2022-08-17T01:55:41.675Z,14.90
2022-08-17T01:58:09.992Z,14.70
2022-08-17T02:01:01.043Z,14.60
2022-08-17T02:03:26.137Z,14.70
2022-08-17T02:05:53.497Z,14.80
2022-08-17T02:08:21.290Z,14.70
2022-08-17T02:11:11.304Z,14.80
2022-08-17T02:13:39.008Z,14.70
2022-08-17T02:16:06.421Z,14.70
2022-08-17T02:18:33.707Z,14.60
2022-08-17T02:21:00.988Z,14.70
2022-08-17T02:23:29.266Z,14.70
2022-08-17T02:25:56.625Z,14.60
2022-08-17T02:28:23.968Z,14.50
2022-08-17T02:31:01.411Z,14.40
2022-08-17T02:33:42.644Z,14.40
2022-08-17T02:36:12.724Z,14.50
2022-08-17T02:38:40.474Z,14.50
2022-08-17T02:41:07.774Z,14.30
2022-08-17T02:43:35.068Z,14.20
2022-08-17T02:46:02.228Z,14.20
2022-08-17T02:48:31.386Z,14.00
2022-08-17T02:51:00.159Z,13.90
2022-08-17T02:53:35.623Z,13.80
2022-08-17T02:56:03.898Z,14.00
2022-08-17T02:58:35.131Z,14.20
2022-08-17T03:01:07.039Z,14.00
2022-08-17T03:03:34.483Z,13.90
2022-08-17T03:06:01.811Z,13.70
2022-08-17T03:08:29.304Z,13.60
2022-08-17T03:10:56.790Z,13.50
2022-08-17T03:13:24.350Z,13.60
2022-08-17T03:15:52.079Z,13.70
2022-08-17T03:18:25.327Z,13.60
2022-08-17T03:20:58.001Z,13.60
2022-08-17T03:23:25.756Z,13.80
2022-08-17T03:25:53.875Z,13.70
2022-08-17T03:28:22.119Z,13.70
2022-08-17T03:30:51.546Z,13.40
2022-08-17T03:33:19.248Z,13.30
2022-08-17T03:35:46.715Z,13.40
2022-08-17T03:38:15.035Z,13.30
2022-08-17T03:40:56.705Z,13.40
2022-08-17T03:43:30.243Z,13.30
2022-08-17T03:46:28.486Z,13.40
2022-08-17T03:49:19.951Z,13.30
2022-08-17T03:52:06.437Z,13.10
2022-08-17T03:54:52.350Z,13.00
2022-08-17T03:57:19.975Z,13.00
2022-08-17T03:59:47.731Z,13.00
2022-08-17T04:02:42.071Z,13.20
2022-08-17T04:05:10.027Z,13.20
2022-08-17T04:07:37.352Z,13.20
2022-08-17T04:10:05.033Z,13.20
2022-08-17T04:12:46.408Z,13.20
2022-08-17T04:15:14.049Z,13.30
2022-08-17T04:17:41.481Z,13.40
2022-08-17T04:20:09.743Z,13.50
2022-08-17T04:22:37.265Z,13.50
2022-08-17T04:25:09.557Z,13.30
2022-08-17T04:27:36.942Z,13.50
2022-08-17T04:30:07.369Z,13.60
2022-08-17T04:33:04.058Z,13.40
2022-08-17T04:35:45.055Z,13.40
2022-08-17T04:38:17.869Z,13.30
2022-08-17T04:41:03.989Z,13.20
2022-08-17T04:43:32.656Z,13.40
2022-08-17T04:46:02.543Z,13.40
2022-08-17T04:48:36.532Z,13.50
2022-08-17T04:51:10.303Z,13.50
2022-08-17T04:53:39.422Z,13.60
2022-08-17T04:56:07.260Z,13.70
2022-08-17T04:58:34.625Z,13.90
2022-08-17T05:01:02.067Z,13.80
2022-08-17T05:03:29.930Z,13.90
2022-08-17T05:05:57.586Z,14.00
2022-08-17T05:08:25.228Z,14.20
2022-08-17T05:10:52.762Z,14.40
2022-08-17T05:13:22.512Z,14.50
2022-08-17T05:15:50.938Z,14.30
2022-08-17T05:18:18.285Z,14.50
2022-08-17T05:20:45.820Z,14.50
2022-08-17T05:23:15.259Z,14.70
2022-08-17T05:25:45.655Z,14.80
2022-08-17T05:28:16.561Z,14.90
2022-08-17T05:30:44.232Z,15.10
2022-08-17T05:33:13.742Z,15.30
2022-08-17T05:35:47.397Z,15.50
2022-08-17T05:38:15.537Z,15.60
2022-08-17T05:40:43.218Z,15.60
2022-08-17T05:43:17.347Z,15.70
2022-08-17T05:45:55.229Z,15.70
2022-08-17T05:48:39.059Z,15.90
2022-08-17T05:51:14.096Z,16.00
2022-08-17T05:54:02.771Z,16.00
2022-08-17T05:56:54.779Z,16.00
2022-08-17T05:59:48.940Z,16.10
2022-08-17T06:02:47.476Z,16.40
2022-08-17T06:05:50.944Z,16.60
2022-08-17T06:08:34.700Z,17.20
2022-08-17T06:11:22.760Z,18.00
2022-08-17T06:14:12.782Z,18.80
2022-08-17T06:16:45.617Z,19.40
2022-08-17T06:19:19.251Z,20.60
2022-08-17T06:21:51.117Z,21.30
2022-08-17T06:24:45.175Z,21.80
2022-08-17T06:27:37.726Z,22.10
2022-08-17T06:30:12.926Z,22.90
2022-08-17T06:32:43.010Z,23.10
2022-08-17T06:35:13.888Z,23.80
2022-08-17T06:37:59.977Z,23.70
2022-08-17T06:40:46.518Z,24.20
2022-08-17T06:43:34.784Z,24.70
2022-08-17T06:46:05.023Z,25.00
2022-08-17T06:48:32.337Z,25.20
2022-08-17T06:51:04.045Z,25.00
2022-08-17T06:53:49.231Z,25.50
2022-08-17T06:56:55.015Z,26.00
2022-08-17T06:59:54.919Z,26.40
2022-08-17T07:02:53.033Z,26.20
2022-08-17T07:05:32.868Z,26.50
2022-08-17T07:08:25.318Z,27.50
2022-08-17T07:10:57.467Z,27.70
2022-08-17T07:13:57.391Z,27.70
2022-08-17T07:16:47.352Z,27.70
2022-08-17T07:19:17.058Z,28.00
2022-08-17T07:22:05.354Z,28.20
2022-08-17T07:24:47.574Z,28.40
2022-08-17T07:27:16.810Z,28.20
2022-08-17T07:30:09.533Z,28.20
2022-08-17T07:32:51.485Z,28.70
2022-08-17T07:35:20.009Z,28.90
2022-08-17T07:37:56.078Z,28.90
2022-08-17T07:40:32.604Z,28.80
2022-08-17T07:43:06.462Z,28.90
2022-08-17T07:45:52.744Z,28.90
2022-08-17T07:48:25.265Z,28.70
2022-08-17T07:50:55.468Z,28.70
2022-08-17T07:53:25.744Z,28.30
2022-08-17T07:55:53.878Z,28.30
2022-08-17T07:58:23.877Z,28.30
2022-08-17T08:01:11.821Z,28.50
2022-08-17T08:03:45.101Z,28.40
2022-08-17T08:06:23.672Z,28.50
2022-08-17T08:08:53.115Z,28.40
2022-08-17T08:11:40.140Z,28.20
2022-08-17T08:14:30.292Z,28.10
2022-08-17T08:17:06.906Z,28.20
2022-08-17T08:19:36.751Z,28.20
2022-08-17T08:22:13.850Z,28.30
2022-08-17T08:24:41.468Z,28.40
2022-08-17T08:27:30.641Z,28.60
2022-08-17T08:30:10.480Z,28.70
2022-08-17T08:32:59.620Z,28.60
2022-08-17T08:35:33.663Z,28.70
2022-08-17T08:38:31.745Z,28.70
2022-08-17T08:41:09.203Z,28.90
2022-08-17T08:43:52.206Z,28.80
2022-08-17T08:46:41.263Z,28.60
2022-08-17T08:49:59.115Z,28.50
2022-08-17T08:52:55.733Z,28.50
2022-08-17T08:55:35.091Z,28.50
2022-08-17T08:58:41.262Z,28.50
2022-08-17T09:01:52.117Z,28.40
2022-08-17T09:05:15.262Z,28.70
2022-08-17T09:08:13.193Z,28.80
2022-08-17T09:11:26.402Z,29.10
2022-08-17T09:14:00.579Z,28.90
2022-08-17T09:16:36.581Z,28.90
2022-08-17T09:19:15.264Z,29.00
2022-08-17T09:21:53.040Z,29.10
2022-08-17T09:24:20.969Z,29.20
2022-08-17T09:27:03.261Z,29.10
2022-08-17T09:29:35.543Z,29.10
2022-08-17T09:32:17.881Z,29.10
2022-08-17T09:35:01.791Z,29.00
2022-08-17T09:37:31.299Z,29.20
2022-08-17T09:40:02.689Z,29.20
2022-08-17T09:43:13.788Z,29.20
2022-08-17T09:45:53.501Z,28.90
2022-08-17T09:48:29.090Z,29.00
2022-08-17T09:51:24.611Z,29.20
2022-08-17T09:53:52.118Z,29.20
2022-08-17T09:57:28.066Z,29.20
2022-08-17T10:00:17.489Z,29.30
2022-08-17T10:03:03.642Z,29.40
2022-08-17T10:05:46.766Z,29.10
2022-08-17T10:08:23.732Z,29.10
2022-08-17T10:11:16.027Z,29.20
2022-08-17T10:13:52.994Z,29.50
2022-08-17T10:16:42.399Z,29.60
2022-08-17T10:19:38.142Z,29.70
2022-08-17T10:22:35.330Z,29.90
2022-08-17T10:25:26.170Z,29.70
2022-08-17T10:28:05.075Z,29.60
2022-08-17T10:30:33.891Z,29.90
2022-08-17T10:33:13.871Z,29.80
2022-08-17T10:35:57.106Z,29.90
2022-08-17T10:38:27.865Z,30.20
2022-08-17T10:41:28.006Z,30.30
2022-08-17T10:44:39.481Z,30.30
2022-08-17T10:47:18.431Z,30.20
2022-08-17T10:49:56.515Z,29.80
2022-08-17T10:52:24.937Z,29.80
2022-08-17T10:54:58.502Z,29.80
2022-08-17T10:57:32.093Z,30.00
2022-08-17T11:00:08.589Z,30.20
2022-08-17T11:02:53.342Z,29.90
2022-08-17T11:05:43.843Z,29.70
2022-08-17T11:08:26.479Z,30.10
2022-08-17T11:11:18.829Z,30.30
2022-08-17T11:14:09.049Z,30.30
2022-08-17T11:17:14.944Z,30.50
2022-08-17T11:19:51.704Z,30.40
2022-08-17T11:22:40.178Z,30.40
2022-08-17T11:25:15.190Z,30.50
2022-08-17T11:27:42.654Z,30.60
2022-08-17T11:30:15.241Z,30.70
2022-08-17T11:32:54.468Z,30.60
2022-08-17T11:35:22.480Z,30.80
2022-08-17T11:38:14.105Z,30.90
2022-08-17T11:41:01.892Z,30.70
2022-08-17T11:43:49.028Z,30.50
2022-08-17T11:47:08.691Z,30.50
2022-08-17T11:50:12.509Z,30.80
2022-08-17T11:52:46.015Z,31.10
2022-08-17T11:55:40.518Z,31.10
2022-08-17T11:58:31.795Z,31.20
2022-08-17T12:01:04.313Z,31.20
2022-08-17T12:03:33.625Z,30.90
2022-08-17T12:06:18.601Z,30.90
2022-08-17T12:08:57.379Z,30.90
2022-08-17T12:11:58.768Z,31.20
2022-08-17T12:17:40.118Z,31.30
2022-08-17T12:20:34.189Z,31.20
2022-08-17T12:23:16.278Z,31.10
2022-08-17T12:25:49.646Z,31.10
2022-08-17T12:28:26.826Z,31.00
2022-08-17T12:30:54.615Z,30.80
2022-08-17T12:33:25.273Z,31.00
2022-08-17T12:36:09.136Z,31.10
2022-08-17T12:38:37.664Z,30.90
2022-08-17T12:41:25.655Z,31.10
2022-08-17T12:44:04.256Z,31.30
2022-08-17T12:46:34.382Z,31.40
2022-08-17T12:49:13.820Z,31.50
2022-08-17T12:51:45.821Z,31.40
2022-08-17T12:54:46.248Z,31.30
2022-08-17T12:57:38.202Z,31.30
2022-08-17T13:00:18.484Z,31.30
2022-08-17T13:02:51.828Z,31.50
2022-08-17T13:05:30.937Z,31.60
2022-08-17T13:07:59.686Z,31.50
2022-08-17T13:10:32.559Z,31.30
2022-08-17T13:13:06.156Z,31.20
2022-08-17T13:15:51.678Z,31.30
2022-08-17T13:18:39.363Z,31.30
2022-08-17T13:21:27.858Z,31.40
2022-08-17T13:24:01.270Z,31.20
2022-08-17T13:26:36.828Z,31.20
2022-08-17T13:29:09.868Z,31.20
2022-08-17T13:31:52.909Z,31.20
2022-08-17T13:34:24.533Z,31.10
2022-08-17T13:37:16.096Z,31.00
2022-08-17T13:39:44.367Z,31.00
2022-08-17T13:42:32.061Z,31.20
2022-08-17T13:45:00.215Z,31.40
2022-08-17T13:47:27.781Z,31.60
2022-08-17T13:49:55.509Z,31.80
2022-08-17T13:52:41.776Z,31.90
2022-08-17T13:55:21.549Z,31.90
2022-08-17T13:58:03.555Z,32.00
2022-08-17T14:00:35.853Z,32.00
2022-08-17T14:03:04.185Z,31.90
2022-08-17T14:05:31.778Z,31.80
2022-08-17T14:08:06.886Z,31.80
2022-08-17T14:10:36.766Z,31.80
2022-08-17T14:13:04.799Z,31.80
2022-08-17T14:15:56.242Z,31.80
2022-08-17T14:18:53.497Z,31.90
2022-08-17T14:21:08.988Z,31.90
2022-08-17T14:23:36.986Z,31.70
2022-08-17T14:26:04.763Z,31.60
2022-08-17T14:28:32.223Z,31.50
2022-08-17T14:31:00.598Z,31.60
2022-08-17T14:33:29.599Z,31.40
2022-08-17T14:35:58.015Z,31.40
2022-08-17T14:38:25.429Z,31.60
2022-08-17T14:40:52.827Z,31.70
2022-08-17T14:43:21.266Z,31.70
2022-08-17T14:45:48.860Z,31.80
2022-08-17T14:48:16.207Z,31.90
2022-08-17T14:50:43.962Z,32.00
2022-08-17T14:53:16.680Z,32.00
2022-08-17T14:55:47.447Z,31.80
2022-08-17T14:58:16.172Z,32.00
2022-08-17T15:00:44.130Z,31.90
2022-08-17T15:03:12.351Z,31.90
2022-08-17T15:05:39.712Z,31.80
2022-08-17T15:08:07.417Z,31.70
2022-08-17T15:10:35.072Z,31.70
2022-08-17T15:13:02.558Z,31.70
2022-08-17T15:15:30.052Z,31.60
2022-08-17T15:17:58.008Z,31.50
2022-08-17T15:20:28.306Z,31.50
2022-08-17T15:22:56.349Z,31.50
2022-08-17T15:25:24.939Z,31.30
2022-08-17T15:27:52.701Z,31.20
2022-08-17T15:30:20.547Z,31.30
2022-08-17T15:32:51.441Z,31.20
2022-08-17T15:35:27.848Z,31.20
2022-08-17T15:37:58.001Z,31.20
2022-08-17T15:40:25.505Z,31.10
2022-08-17T15:42:53.250Z,31.00
2022-08-17T15:45:24.763Z,30.90
2022-08-17T15:47:53.833Z,30.90
2022-08-17T15:50:21.594Z,30.90
2022-08-17T15:52:57.202Z,30.80
2022-08-17T15:55:24.737Z,30.80
2022-08-17T15:57:52.419Z,30.70
2022-08-17T16:00:20.141Z,30.60
2022-08-17T16:03:14.193Z,30.60
2022-08-17T16:05:36.316Z,30.70
2022-08-17T16:08:04.767Z,30.60
2022-08-17T16:10:35.344Z,30.60
2022-08-17T16:13:03.620Z,30.50
2022-08-17T16:15:34.017Z,30.50
2022-08-17T16:18:01.425Z,30.40
2022-08-17T16:20:30.858Z,30.40
2022-08-17T16:22:58.384Z,30.30
2022-08-17T16:25:38.378Z,30.30
2022-08-17T16:28:16.308Z,30.30
2022-08-17T16:30:43.759Z,30.30
2022-08-17T16:33:12.184Z,30.30
2022-08-17T16:35:39.941Z,30.30
2022-08-17T16:38:07.513Z,30.20
2022-08-17T16:40:35.726Z,30.10
2022-08-17T16:43:07.457Z,30.00
2022-08-17T16:45:37.008Z,29.80
2022-08-17T16:48:04.892Z,29.80
2022-08-17T16:50:33.103Z,29.70
2022-08-17T16:53:11.520Z,29.60
2022-08-17T16:55:39.114Z,29.40
2022-08-17T16:58:06.538Z,29.40
2022-08-17T17:00:34.478Z,29.30
2022-08-17T17:03:22.714Z,29.20
2022-08-17T17:06:03.515Z,29.20
2022-08-17T17:08:44.695Z,28.90
2022-08-17T17:11:42.217Z,28.80
2022-08-17T17:14:23.028Z,28.80
2022-08-17T17:17:14.733Z,28.60
2022-08-17T17:19:57.111Z,28.60
2022-08-17T17:22:33.490Z,28.60
2022-08-17T17:25:07.760Z,28.50
2022-08-17T17:27:53.384Z,28.30
2022-08-17T17:30:33.428Z,28.20
2022-08-17T17:33:06.264Z,28.00
2022-08-17T17:35:39.292Z,27.80
2022-08-17T17:38:12.792Z,27.70
2022-08-17T17:40:43.299Z,27.30
2022-08-17T17:43:37.177Z,27.10
2022-08-17T17:46:28.529Z,27.10
2022-08-17T17:48:57.816Z,27.00
2022-08-17T17:52:07.158Z,26.80
2022-08-17T17:55:03.073Z,26.70
2022-08-17T17:57:33.866Z,26.40
2022-08-17T18:00:15.812Z,26.10
2022-08-17T18:02:52.992Z,26.10
2022-08-17T18:05:23.443Z,26.00
2022-08-17T18:08:10.985Z,26.10
2022-08-17T18:10:43.314Z,26.00
2022-08-17T18:13:22.370Z,25.90
2022-08-17T18:15:54.771Z,25.80
2022-08-17T18:18:38.272Z,25.50
2022-08-17T18:21:17.055Z,25.30
2022-08-17T18:23:49.052Z,25.30
2022-08-17T18:26:46.660Z,25.20
2022-08-17T18:29:32.722Z,25.00
2022-08-17T18:32:26.393Z,24.60
2022-08-17T18:35:02.339Z,24.50
2022-08-17T18:37:36.154Z,24.50
2022-08-17T18:40:21.693Z,24.50
2022-08-17T18:43:04.817Z,24.50
2022-08-17T18:45:36.428Z,24.30
2022-08-17T18:48:04.130Z,24.20
2022-08-17T18:50:41.588Z,24.10
2022-08-17T18:53:39.648Z,24.00
2022-08-17T18:56:31.414Z,23.90
2022-08-17T18:59:02.911Z,23.70
2022-08-17T19:01:52.065Z,23.80
2022-08-17T19:04:36.973Z,23.60
2022-08-17T19:07:10.660Z,23.30
2022-08-17T19:09:44.710Z,23.20
2022-08-17T19:12:27.389Z,23.20
2022-08-17T19:14:55.872Z,23.30
2022-08-17T19:17:33.679Z,23.10
2022-08-17T19:20:06.365Z,23.00
2022-08-17T19:22:48.241Z,23.00
2022-08-17T19:25:21.843Z,22.90
2022-08-17T19:28:21.464Z,22.90
2022-08-17T19:30:51.854Z,22.80
2022-08-17T19:33:19.894Z,22.80
2022-08-17T19:35:58.687Z,22.70
2022-08-17T19:38:38.530Z,22.70
2022-08-17T19:41:11.947Z,22.80
2022-08-17T19:43:48.424Z,22.60
2022-08-17T19:46:19.949Z,22.60
2022-08-17T19:48:59.299Z,22.50
2022-08-17T19:51:52.420Z,22.60
2022-08-17T19:54:24.053Z,22.60
2022-08-17T19:56:56.866Z,22.60
2022-08-17T19:59:35.646Z,22.40
2022-08-17T20:02:33.998Z,22.40
2022-08-17T20:05:24.789Z,22.20
2022-08-17T20:08:01.055Z,22.20
2022-08-17T20:10:37.069Z,22.00
2022-08-17T20:13:08.772Z,22.00
2022-08-17T20:15:38.798Z,22.00
2022-08-17T20:18:09.869Z,22.00
2022-08-17T20:20:55.958Z,22.10
2022-08-17T20:23:46.642Z,22.00
2022-08-17T20:26:55.593Z,22.10
2022-08-17T20:29:55.885Z,22.00
2022-08-17T20:32:25.541Z,21.80
2022-08-17T20:35:30.746Z,21.60
2022-08-17T20:38:11.102Z,21.50
2022-08-17T20:40:54.709Z,21.40
2022-08-17T20:43:37.307Z,21.50
2022-08-17T20:46:22.600Z,21.80
2022-08-17T20:48:52.609Z,21.80
2022-08-17T20:51:35.167Z,21.70
2022-08-17T20:54:08.787Z,21.70
2022-08-17T20:56:45.280Z,21.50
2022-08-17T20:59:26.055Z,21.40
2022-08-17T21:02:19.423Z,21.60
2022-08-17T21:04:56.788Z,21.60
2022-08-17T21:07:42.830Z,21.50
2022-08-17T21:10:17.795Z,21.20
2022-08-17T21:12:49.299Z,21.30
2022-08-17T21:15:28.860Z,21.50
2022-08-17T21:18:18.863Z,21.50
2022-08-17T21:20:59.411Z,21.40
2022-08-17T21:23:45.232Z,20.90
2022-08-17T21:26:26.715Z,21.00
2022-08-17T21:29:31.192Z,20.90
2022-08-17T21:32:00.867Z,20.90
2022-08-17T21:34:37.180Z,20.90
2022-08-17T21:37:25.522Z,20.90
2022-08-17T21:39:56.382Z,20.80
2022-08-17T21:42:32.473Z,20.90
2022-08-17T21:45:27.737Z,21.00
2022-08-17T21:48:08.699Z,21.10
2022-08-17T21:50:36.389Z,21.10
2022-08-17T21:53:03.938Z,21.00
2022-08-17T21:55:32.544Z,21.00
2022-08-17T21:58:35.425Z,21.10
2022-08-17T22:01:25.670Z,20.90
2022-08-17T22:04:11.876Z,21.00
2022-08-17T22:06:41.445Z,21.10
2022-08-17T22:09:15.298Z,20.90
2022-08-17T22:12:05.902Z,20.90
2022-08-17T22:14:53.164Z,20.90
2022-08-17T22:17:31.730Z,20.90
2022-08-17T22:20:14.624Z,20.90
2022-08-17T22:23:13.056Z,20.80
2022-08-17T22:25:42.034Z,20.90
2022-08-17T22:28:11.370Z,20.70
2022-08-17T22:30:40.856Z,20.80
2022-08-17T22:33:33.595Z,20.90
2022-08-17T22:36:42.754Z,20.90
2022-08-17T22:39:10.242Z,20.90
2022-08-17T22:41:57.571Z,20.80
2022-08-17T22:44:28.766Z,21.00
2022-08-17T22:47:11.274Z,20.90
2022-08-17T22:50:01.748Z,20.90
2022-08-17T22:53:03.592Z,20.90
2022-08-17T22:55:49.429Z,20.90
2022-08-17T22:58:37.931Z,21.10
2022-08-17T23:01:26.313Z,21.20
2022-08-17T23:03:58.995Z,21.20
2022-08-17T23:06:26.392Z,21.10
2022-08-17T23:08:58.259Z,21.10
2022-08-17T23:11:36.774Z,21.20
2022-08-17T23:14:16.136Z,21.20
2022-08-17T23:16:44.157Z,21.10
2022-08-17T23:19:12.549Z,21.10
2022-08-17T23:21:40.053Z,21.20
2022-08-17T23:24:09.063Z,21.20
2022-08-17T23:26:39.485Z,21.30
2022-08-17T23:29:07.131Z,21.20
2022-08-17T23:31:35.244Z,21.30
2022-08-17T23:34:03.920Z,21.10
2022-08-17T23:36:32.798Z,21.20
2022-08-17T23:39:00.660Z,21.20
2022-08-17T23:41:29.905Z,21.10
2022-08-17T23:43:57.478Z,20.90
2022-08-17T23:46:25.452Z,20.90
2022-08-17T23:48:54.516Z,20.90
2022-08-17T23:51:30.073Z,20.80
2022-08-17T23:54:05.798Z,20.80
2022-08-17T23:56:38.604Z,20.80
2022-08-17T23:59:05.850Z,20.90
